Time;durP1;ratioP1;P1;durP2;ratioP2;P2;SDS_P1;SDS_P2;PMS_P1;PMS_P2;Temp;Humidity;BMP_temperature;BMP_pressure;BME280_temperature;BME280_humidity;BME280_pressure;Samples;Min_cycle;Max_cycle;Signal;HPM_P1;HPM_P2
2021/06/17 00:00:29;;;;;;;;;;;21.40;62.00;;;;;;5092645;28;20004;-67
2021/06/17 00:02:56;;;;;;;;;;;21.40;61.90;;;;;;5092108;28;20372;-67
2021/06/17 00:05:22;;;;;;;;;;;21.40;61.80;;;;;;5091338;28;19930;-68
2021/06/17 00:07:48;;;;;;;;;;;21.30;61.60;;;;;;5090903;28;19916;-67
2021/06/17 00:10:23;;;;;;;;;;;21.30;61.60;;;;;;5091247;28;19942;-67
2021/06/17 00:12:49;;;;;;;;;;;21.30;61.60;;;;;;5092011;28;19982;-67
2021/06/17 00:15:15;;;;;;;;;;;21.20;61.50;;;;;;5092419;28;19920;-67
2021/06/17 00:17:42;;;;;;;;;;;21.20;61.50;;;;;;5090955;28;19927;-67
2021/06/17 00:20:08;;;;;;;;;;;21.20;61.50;;;;;;5091382;28;19979;-67
2021/06/17 00:22:34;;;;;;;;;;;21.20;61.40;;;;;;5092337;28;20030;-68
2021/06/17 00:24:59;;;;;;;;;;;21.20;61.30;;;;;;5107657;28;19983;-68
2021/06/17 00:27:26;;;;;;;;;;;21.20;61.30;;;;;;5091870;28;19923;-67
2021/06/17 00:29:52;;;;;;;;;;;21.20;61.20;;;;;;5090688;28;19965;-67
2021/06/17 00:32:18;;;;;;;;;;;21.20;61.20;;;;;;5090471;28;19916;-67
2021/06/17 00:34:43;;;;;;;;;;;21.10;61.10;;;;;;5090580;28;20431;-67
2021/06/17 00:37:09;;;;;;;;;;;21.20;61.00;;;;;;5090641;28;20325;-67
2021/06/17 00:39:34;;;;;;;;;;;21.10;60.90;;;;;;5091411;28;19923;-66
2021/06/17 00:42:00;;;;;;;;;;;21.10;60.90;;;;;;5090739;28;19985;-67
2021/06/17 00:44:25;;;;;;;;;;;21.10;60.90;;;;;;5091725;28;20307;-67
2021/06/17 00:46:51;;;;;;;;;;;21.00;60.80;;;;;;5091591;28;19997;-67
2021/06/17 00:49:16;;;;;;;;;;;21.00;60.80;;;;;;5107381;28;19924;-68
2021/06/17 00:51:42;;;;;;;;;;;21.00;60.80;;;;;;5091465;28;19916;-67
2021/06/17 00:54:07;;;;;;;;;;;21.00;60.90;;;;;;5091493;28;19917;-67
2021/06/17 00:56:33;;;;;;;;;;;21.00;60.90;;;;;;5091733;28;19916;-67
2021/06/17 00:58:59;;;;;;;;;;;20.90;60.80;;;;;;5087697;28;19925;-67
2021/06/17 01:01:25;;;;;;;;;;;20.90;60.80;;;;;;5071734;28;19995;-66
2021/06/17 01:03:50;;;;;;;;;;;20.90;60.90;;;;;;5053277;28;20374;-67
2021/06/17 01:06:16;;;;;;;;;;;20.80;60.80;;;;;;5069858;28;20372;-68
2021/06/17 01:08:58;;;;;;;;;;;20.80;60.80;;;;;;5070052;28;19982;-67
2021/06/17 01:12:02;;;;;;;;;;;20.80;60.80;;;;;;5071291;28;20414;-67
2021/06/17 01:14:33;;;;;;;;;;;20.80;60.90;;;;;;5008445;28;20462;-67
2021/06/17 01:17:03;;;;;;;;;;;20.80;60.80;;;;;;5009392;28;20381;-67
2021/06/17 01:19:29;;;;;;;;;;;20.70;60.80;;;;;;5041847;28;19916;-67
2021/06/17 01:21:57;;;;;;;;;;;20.70;60.80;;;;;;5070088;28;19916;-68
2021/06/17 01:24:23;;;;;;;;;;;20.70;60.80;;;;;;5071155;28;19917;-67
2021/06/17 01:27:08;;;;;;;;;;;20.70;60.90;;;;;;5070879;28;19924;-67
2021/06/17 01:29:35;;;;;;;;;;;20.60;60.80;;;;;;5071127;28;19998;-67
2021/06/17 01:32:01;;;;;;;;;;;20.60;60.90;;;;;;5073864;28;19921;-67
2021/06/17 01:34:27;;;;;;;;;;;20.60;60.90;;;;;;5073670;28;19913;-66
2021/06/17 01:37:04;;;;;;;;;;;20.50;60.90;;;;;;5073539;28;19925;-67
2021/06/17 01:39:30;;;;;;;;;;;20.50;60.90;;;;;;5075112;28;19917;-67
2021/06/17 01:41:57;;;;;;;;;;;20.50;60.90;;;;;;5074851;28;20012;-67
2021/06/17 01:44:23;;;;;;;;;;;20.50;61.00;;;;;;5074843;28;19920;-68
2021/06/17 01:46:50;;;;;;;;;;;20.40;61.00;;;;;;5074894;28;19927;-68
2021/06/17 01:49:16;;;;;;;;;;;20.40;61.00;;;;;;5074381;28;19963;-67
2021/06/17 01:51:42;;;;;;;;;;;20.30;61.00;;;;;;5074967;28;20295;-67
2021/06/17 01:54:08;;;;;;;;;;;20.30;61.00;;;;;;5074230;28;19916;-67
2021/06/17 01:56:34;;;;;;;;;;;20.30;61.10;;;;;;5074894;28;19931;-66
2021/06/17 01:59:02;;;;;;;;;;;20.30;61.10;;;;;;5074853;28;19936;-67
2021/06/17 02:01:31;;;;;;;;;;;20.30;61.10;;;;;;5074377;28;20031;-67
2021/06/17 02:03:58;;;;;;;;;;;20.30;61.10;;;;;;5073145;28;19962;-67
2021/06/17 02:06:26;;;;;;;;;;;20.20;61.00;;;;;;5073072;28;20011;-67
2021/06/17 02:08:52;;;;;;;;;;;20.20;61.00;;;;;;5073112;28;19932;-67
2021/06/17 02:11:18;;;;;;;;;;;20.20;61.10;;;;;;5073286;28;20018;-67
2021/06/17 02:13:44;;;;;;;;;;;20.10;61.00;;;;;;5073873;28;20007;-66
2021/06/17 02:16:10;;;;;;;;;;;20.10;61.10;;;;;;5073118;28;20050;-67
2021/06/17 02:18:37;;;;;;;;;;;20.10;61.10;;;;;;5072763;28;20378;-67
2021/06/17 02:21:04;;;;;;;;;;;20.00;61.00;;;;;;5074506;28;19967;-67
2021/06/17 02:23:31;;;;;;;;;;;20.00;61.10;;;;;;5074033;28;20391;-67
2021/06/17 02:25:58;;;;;;;;;;;20.00;61.10;;;;;;5073861;28;20288;-67
2021/06/17 02:28:26;;;;;;;;;;;20.00;61.20;;;;;;5073524;28;19955;-66
2021/06/17 02:30:53;;;;;;;;;;;19.90;61.20;;;;;;5073690;28;19920;-67
2021/06/17 02:33:20;;;;;;;;;;;19.90;61.20;;;;;;5072631;28;19924;-67
2021/06/17 02:35:46;;;;;;;;;;;19.90;61.20;;;;;;5074151;28;20372;-67
2021/06/17 02:38:14;;;;;;;;;;;19.90;61.30;;;;;;5072449;28;20000;-67
2021/06/17 02:40:44;;;;;;;;;;;19.90;61.30;;;;;;5074122;28;19912;-67
2021/06/17 02:43:12;;;;;;;;;;;19.80;61.30;;;;;;5054642;28;19922;-68
2021/06/17 02:45:39;;;;;;;;;;;19.80;61.40;;;;;;5073892;28;19931;-67
2021/06/17 02:48:05;;;;;;;;;;;19.80;61.40;;;;;;5073766;28;19916;-67
2021/06/17 02:50:31;;;;;;;;;;;19.70;61.40;;;;;;5072130;28;19920;-67
2021/06/17 02:52:56;;;;;;;;;;;19.70;61.40;;;;;;5072365;28;20007;-67
2021/06/17 02:55:22;;;;;;;;;;;19.70;61.40;;;;;;5073702;28;20036;-67
2021/06/17 02:58:26;;;;;;;;;;;19.70;61.50;;;;;;5073369;28;19920;-67
2021/06/17 03:01:21;;;;;;;;;;;19.60;61.50;;;;;;4991742;28;20012;-67
2021/06/17 03:03:51;;;;;;;;;;;19.60;61.50;;;;;;4982764;28;20001;-67
2021/06/17 03:06:24;;;;;;;;;;;19.60;61.60;;;;;;5057858;28;20291;-67
2021/06/17 03:08:52;;;;;;;;;;;19.60;61.70;;;;;;5073083;28;19917;-66
2021/06/17 03:11:19;;;;;;;;;;;19.60;61.70;;;;;;5073460;28;19924;-66
2021/06/17 03:13:46;;;;;;;;;;;19.60;61.70;;;;;;5071614;28;19985;-67
2021/06/17 03:18:55;;;;;;;;;;;19.60;61.80;;;;;;5160517;22;20024;-68
2021/06/17 03:21:22;;;;;;;;;;;19.60;61.80;;;;;;5016389;28;19918;-66
2021/06/17 03:23:48;;;;;;;;;;;19.50;61.80;;;;;;5012137;28;20431;-67
2021/06/17 03:26:14;;;;;;;;;;;19.50;61.80;;;;;;5013041;28;20405;-67
2021/06/17 03:28:40;;;;;;;;;;;19.60;61.90;;;;;;5012731;28;19918;-67
2021/06/17 03:31:08;;;;;;;;;;;19.50;61.90;;;;;;5041269;23;20527;-62
2021/06/17 03:33:37;;;;;;;;;;;19.50;61.90;;;;;;5051304;28;19928;-62
2021/06/17 03:36:03;;;;;;;;;;;19.60;62.10;;;;;;5052949;28;19917;-62
2021/06/17 03:38:29;;;;;;;;;;;19.60;62.10;;;;;;5051767;28;19921;-62
2021/06/17 03:40:56;;;;;;;;;;;19.50;62.10;;;;;;5052862;28;20440;-62
2021/06/17 03:43:23;;;;;;;;;;;19.60;62.10;;;;;;5035035;28;20376;-62
2021/06/17 03:45:49;;;;;;;;;;;19.60;62.20;;;;;;5052455;28;19952;-62
2021/06/17 03:48:15;;;;;;;;;;;19.60;62.20;;;;;;5052092;28;20399;-62
2021/06/17 03:50:44;;;;;;;;;;;19.60;62.20;;;;;;5052175;28;19920;-62
2021/06/17 03:53:09;;;;;;;;;;;19.70;62.20;;;;;;5052529;28;20003;-62
2021/06/17 03:55:36;;;;;;;;;;;19.70;62.10;;;;;;5052550;28;20009;-62
2021/06/17 03:58:02;;;;;;;;;;;19.70;62.10;;;;;;5051442;28;19924;-62
2021/06/17 04:00:32;;;;;;;;;;;19.70;62.00;;;;;;5052460;28;20288;-62
2021/06/17 04:02:59;;;;;;;;;;;19.70;61.90;;;;;;5033788;28;19917;-62
2021/06/17 04:05:24;;;;;;;;;;;19.80;61.90;;;;;;5033203;28;19939;-62
2021/06/17 04:07:54;;;;;;;;;;;19.80;61.90;;;;;;5010134;28;19917;-62
2021/06/17 04:10:21;;;;;;;;;;;19.70;61.80;;;;;;5011550;28;19917;-62
2021/06/17 04:12:48;;;;;;;;;;;19.70;61.70;;;;;;5004379;28;19924;-62
2021/06/17 04:15:15;;;;;;;;;;;19.80;61.70;;;;;;5014227;28;19924;-62
2021/06/17 04:17:42;;;;;;;;;;;19.80;61.60;;;;;;5031932;28;19944;-62
2021/06/17 04:20:10;;;;;;;;;;;19.90;61.60;;;;;;5014415;28;19925;-62
2021/06/17 04:22:38;;;;;;;;;;;19.90;61.60;;;;;;5031596;28;19917;-62
2021/06/17 04:25:06;;;;;;;;;;;20.20;61.60;;;;;;5031993;28;19971;-62
2021/06/17 04:27:33;;;;;;;;;;;20.00;61.50;;;;;;5030781;28;20328;-62
2021/06/17 04:29:59;;;;;;;;;;;20.00;61.40;;;;;;5032013;28;19913;-62
2021/06/17 04:32:25;;;;;;;;;;;20.10;61.40;;;;;;5031545;28;19928;-62
2021/06/17 04:34:51;;;;;;;;;;;20.10;61.30;;;;;;5031438;28;20004;-63
2021/06/17 04:37:19;;;;;;;;;;;20.10;61.20;;;;;;5021924;28;20358;-62
2021/06/17 04:39:45;;;;;;;;;;;20.10;61.10;;;;;;5021849;28;20344;-63
2021/06/17 04:42:12;;;;;;;;;;;20.20;61.10;;;;;;5003932;28;19921;-62
2021/06/17 04:44:42;;;;;;;;;;;20.20;61.00;;;;;;5002800;28;20398;-62
2021/06/17 04:47:08;;;;;;;;;;;20.30;61.00;;;;;;5002778;28;19989;-62
2021/06/17 04:49:37;;;;;;;;;;;20.30;60.90;;;;;;5003808;28;19918;-62
2021/06/17 04:52:04;;;;;;;;;;;20.40;60.80;;;;;;5018509;28;19949;-62
2021/06/17 04:54:30;;;;;;;;;;;20.40;60.70;;;;;;5010911;28;19955;-62
2021/06/17 04:56:55;;;;;;;;;;;20.50;60.70;;;;;;5010840;28;19922;-62
2021/06/17 04:59:21;;;;;;;;;;;20.50;60.60;;;;;;4993862;28;19920;-62
2021/06/17 05:01:47;;;;;;;;;;;20.60;60.50;;;;;;4994239;28;20399;-62
2021/06/17 05:04:14;;;;;;;;;;;20.60;60.40;;;;;;5010965;28;20464;-63
2021/06/17 05:06:42;;;;;;;;;;;20.70;60.20;;;;;;5010981;28;20011;-62
2021/06/17 05:11:52;;;;;;;;;;;20.90;60.00;;;;;;5011423;28;19921;-62
2021/06/17 05:14:20;;;;;;;;;;;21.00;60.10;;;;;;5011235;28;19917;-62
2021/06/17 05:16:47;;;;;;;;;;;21.20;60.00;;;;;;5009909;28;19918;-62
2021/06/17 05:19:13;;;;;;;;;;;21.30;59.80;;;;;;5011399;28;20337;-62
2021/06/17 05:21:39;;;;;;;;;;;21.40;59.60;;;;;;5011579;28;20011;-62
2021/06/17 05:24:06;;;;;;;;;;;21.50;59.20;;;;;;5011137;28;19957;-62
2021/06/17 05:26:32;;;;;;;;;;;21.60;59.20;;;;;;4993883;28;19941;-63
2021/06/17 05:28:57;;;;;;;;;;;21.70;59.00;;;;;;5010231;28;19917;-63
2021/06/17 05:31:23;;;;;;;;;;;21.80;58.80;;;;;;5011025;28;19960;-62
2021/06/17 05:33:49;;;;;;;;;;;21.90;58.60;;;;;;5011205;28;19960;-62
2021/06/17 05:36:15;;;;;;;;;;;22.00;58.40;;;;;;4993077;28;19953;-62
2021/06/17 05:38:41;;;;;;;;;;;22.10;58.10;;;;;;5010736;28;19918;-62
2021/06/17 05:41:07;;;;;;;;;;;22.20;58.00;;;;;;5010955;28;19922;-63
2021/06/17 05:43:32;;;;;;;;;;;22.50;58.00;;;;;;5011079;28;19918;-63
2021/06/17 05:46:00;;;;;;;;;;;23.30;59.50;;;;;;5011171;28;20012;-62
2021/06/17 05:48:25;;;;;;;;;;;24.40;60.00;;;;;;5010456;28;19928;-62
2021/06/17 05:50:51;;;;;;;;;;;25.40;58.10;;;;;;5011140;28;20012;-63
2021/06/17 05:53:16;;;;;;;;;;;26.00;55.60;;;;;;5011132;28;19945;-60
2021/06/17 05:55:42;;;;;;;;;;;26.60;55.20;;;;;;5010874;28;19918;-60
2021/06/17 05:58:09;;;;;;;;;;;26.90;53.40;;;;;;5011028;28;19964;-61
2021/06/17 06:00:35;;;;;;;;;;;27.30;51.70;;;;;;5010759;28;20012;-61
2021/06/17 06:03:00;;;;;;;;;;;28.00;51.80;;;;;;5010990;28;20004;-61
2021/06/17 06:05:26;;;;;;;;;;;28.90;51.70;;;;;;5011129;28;19922;-60
2021/06/17 06:07:55;;;;;;;;;;;29.70;50.00;;;;;;5009563;28;19921;-61
2021/06/17 06:10:21;;;;;;;;;;;30.70;49.80;;;;;;5010841;28;19924;-61
2021/06/17 06:12:46;;;;;;;;;;;31.40;47.90;;;;;;5011129;28;19933;-61
2021/06/17 06:15:12;;;;;;;;;;;32.00;45.90;;;;;;4993131;28;19952;-61
2021/06/17 06:17:37;;;;;;;;;;;32.60;45.30;;;;;;4999598;28;19918;-61
2021/06/17 06:20:04;;;;;;;;;;;33.30;44.90;;;;;;5033963;28;19960;-61
2021/06/17 06:22:29;;;;;;;;;;;34.10;43.70;;;;;;5033978;28;19939;-61
2021/06/17 06:24:55;;;;;;;;;;;34.60;42.10;;;;;;5015204;28;19917;-62
2021/06/17 06:27:21;;;;;;;;;;;35.20;41.30;;;;;;5032064;28;19949;-61
2021/06/17 06:29:47;;;;;;;;;;;35.60;39.60;;;;;;5033838;28;19952;-61
2021/06/17 06:32:13;;;;;;;;;;;35.80;38.10;;;;;;5033921;28;20531;-62
2021/06/17 06:34:38;;;;;;;;;;;36.00;37.50;;;;;;5033122;28;19917;-62
2021/06/17 06:37:04;;;;;;;;;;;36.20;36.40;;;;;;5033135;28;19940;-62
2021/06/17 06:39:29;;;;;;;;;;;36.40;36.20;;;;;;5033379;28;19917;-61
2021/06/17 06:41:55;;;;;;;;;;;36.80;36.20;;;;;;5015401;28;19929;-64
2021/06/17 06:44:22;;;;;;;;;;;37.40;35.60;;;;;;5033675;28;19925;-65
2021/06/17 06:46:50;;;;;;;;;;;37.70;34.70;;;;;;5032597;28;19921;-61
2021/06/17 06:49:16;;;;;;;;;;;37.90;34.00;;;;;;5028203;28;19952;-62
2021/06/17 06:51:41;;;;;;;;;;;38.30;33.80;;;;;;5025635;28;20551;-63
2021/06/17 06:54:07;;;;;;;;;;;38.70;33.10;;;;;;5033291;28;19917;-62
2021/06/17 06:56:33;;;;;;;;;;;39.00;32.50;;;;;;5051899;28;19952;-62
2021/06/17 06:58:59;;;;;;;;;;;39.10;31.60;;;;;;5052737;28;19924;-62
2021/06/17 07:01:25;;;;;;;;;;;39.20;31.30;;;;;;5053349;28;19925;-62
2021/06/17 07:03:50;;;;;;;;;;;39.10;30.70;;;;;;5041782;28;19929;-62
2021/06/17 07:06:16;;;;;;;;;;;39.20;31.10;;;;;;5030066;28;19936;-62
2021/06/17 07:08:41;;;;;;;;;;;39.70;31.50;;;;;;5032389;28;19925;-62
2021/06/17 07:11:07;;;;;;;;;;;40.40;30.90;;;;;;5032844;28;19956;-62
2021/06/17 07:13:33;;;;;;;;;;;40.90;30.60;;;;;;5018887;28;20343;-62
2021/06/17 07:15:59;;;;;;;;;;;41.40;30.00;;;;;;5029162;28;19964;-62
2021/06/17 07:18:25;;;;;;;;;;;41.50;29.20;;;;;;4997380;28;20003;-62
2021/06/17 07:20:51;;;;;;;;;;;41.50;28.90;;;;;;5013834;28;19953;-62
2021/06/17 07:23:16;;;;;;;;;;;41.50;28.80;;;;;;5030475;28;19921;-62
2021/06/17 07:25:42;;;;;;;;;;;41.60;28.60;;;;;;5013337;28;19929;-62
2021/06/17 07:28:08;;;;;;;;;;;41.80;29.00;;;;;;5010717;28;19964;-62
2021/06/17 07:30:34;;;;;;;;;;;42.70;29.30;;;;;;5032286;28;19963;-63
2021/06/17 07:32:59;;;;;;;;;;;43.50;28.60;;;;;;5032577;28;19925;-63
2021/06/17 07:35:25;;;;;;;;;;;43.70;27.90;;;;;;5032888;28;19928;-62
2021/06/17 07:37:51;;;;;;;;;;;43.60;27.20;;;;;;5031513;28;20336;-63
2021/06/17 07:40:17;;;;;;;;;;;43.30;27.10;;;;;;5032778;28;19917;-63
2021/06/17 07:42:43;;;;;;;;;;;43.20;27.20;;;;;;5012285;28;19921;-62
2021/06/17 07:45:10;;;;;;;;;;;43.10;27.20;;;;;;5022745;28;19929;-62
2021/06/17 07:47:35;;;;;;;;;;;43.10;27.00;;;;;;5031154;28;19921;-63
2021/06/17 07:50:01;;;;;;;;;;;43.60;27.60;;;;;;5031562;28;19927;-63
2021/06/17 07:52:27;;;;;;;;;;;44.30;27.40;;;;;;5031413;28;19921;-64
2021/06/17 07:54:52;;;;;;;;;;;44.50;26.70;;;;;;5021103;28;19918;-63
2021/06/17 07:57:18;;;;;;;;;;;44.70;26.80;;;;;;5025720;28;20008;-64
2021/06/17 07:59:44;;;;;;;;;;;45.20;26.70;;;;;;5030014;28;19921;-63
2021/06/17 08:02:09;;;;;;;;;;;45.50;26.40;;;;;;5017021;28;19939;-63
2021/06/17 08:04:35;;;;;;;;;;;45.80;26.00;;;;;;5023933;28;19921;-63
2021/06/17 08:07:01;;;;;;;;;;;46.10;26.00;;;;;;5005840;28;19958;-63
2021/06/17 08:09:27;;;;;;;;;;;46.00;25.80;;;;;;5013179;28;19917;-63
2021/06/17 08:11:53;;;;;;;;;;;46.30;26.00;;;;;;5016587;28;19921;-64
2021/06/17 08:14:22;;;;;;;;;;;47.10;26.00;;;;;;5031687;28;20369;-63
2021/06/17 08:16:48;;;;;;;;;;;47.70;25.50;;;;;;5020335;28;20472;-62
2021/06/17 08:19:14;;;;;;;;;;;48.00;25.10;;;;;;5012060;28;19917;-62
2021/06/17 08:21:40;;;;;;;;;;;47.90;24.90;;;;;;5027564;28;20529;-61
2021/06/17 08:24:06;;;;;;;;;;;47.90;24.90;;;;;;5016545;28;19952;-61
2021/06/17 08:26:32;;;;;;;;;;;48.00;24.90;;;;;;5005705;28;20016;-64
2021/06/17 08:28:58;;;;;;;;;;;48.60;25.10;;;;;;5022825;28;19914;-63
2021/06/17 08:31:24;;;;;;;;;;;49.30;24.80;;;;;;4998357;28;19917;-64
2021/06/17 08:33:50;;;;;;;;;;;49.90;24.60;;;;;;5028226;28;19963;-62
2021/06/17 08:36:16;;;;;;;;;;;50.00;24.00;;;;;;5022604;28;19921;-62
2021/06/17 08:38:42;;;;;;;;;;;49.60;24.10;;;;;;5019590;28;19925;-62
2021/06/17 08:41:08;;;;;;;;;;;49.80;24.30;;;;;;5023434;28;19913;-62
2021/06/17 08:43:34;;;;;;;;;;;50.00;23.90;;;;;;5030540;28;20309;-62
2021/06/17 08:46:00;;;;;;;;;;;49.90;23.80;;;;;;5015085;28;19920;-62
2021/06/17 08:48:26;;;;;;;;;;;49.70;23.90;;;;;;5022475;28;19918;-63
2021/06/17 08:50:53;;;;;;;;;;;50.20;24.30;;;;;;5031425;28;19924;-63
2021/06/17 08:53:20;;;;;;;;;;;50.90;24.00;;;;;;5015830;28;19917;-62
2021/06/17 08:55:46;;;;;;;;;;;51.60;23.80;;;;;;5027392;28;19921;-64
2021/06/17 08:58:12;;;;;;;;;;;52.20;23.60;;;;;;5016034;28;20361;-66
2021/06/17 09:00:46;;;;;;;;;;;52.20;23.20;;;;;;5021272;28;20396;-65
2021/06/17 09:03:11;;;;;;;;;;;52.50;23.40;;;;;;5006604;28;20401;-64
2021/06/17 09:05:41;;;;;;;;;;;53.20;23.40;;;;;;5013786;28;19976;-65
2021/06/17 09:08:07;;;;;;;;;;;54.00;23.30;;;;;;5007272;28;19925;-64
2021/06/17 09:10:33;;;;;;;;;;;54.10;22.60;;;;;;5001869;28;19956;-63
2021/06/17 09:13:00;;;;;;;;;;;53.80;22.30;;;;;;5017771;28;19918;-66
2021/06/17 09:15:27;;;;;;;;;;;53.20;22.50;;;;;;5026200;28;19968;-64
2021/06/17 09:18:08;;;;;;;;;;;53.50;22.70;;;;;;5029529;28;19955;-62
2021/06/17 09:20:34;;;;;;;;;;;53.90;22.50;;;;;;5020721;28;20370;-62
2021/06/17 09:23:16;;;;;;;;;;;53.70;22.40;;;;;;5012986;28;19917;-63
2021/06/17 09:25:49;;;;;;;;;;;53.60;22.30;;;;;;5026815;28;19921;-64
2021/06/17 09:28:15;;;;;;;;;;;53.60;22.20;;;;;;5013823;28;19917;-63
2021/06/17 09:30:40;;;;;;;;;;;53.40;22.50;;;;;;5030192;28;20262;-62
2021/06/17 09:33:11;;;;;;;;;;;53.40;22.50;;;;;;5045210;23;19925;-68
2021/06/17 09:35:56;;;;;;;;;;;53.20;22.30;;;;;;4996814;28;20401;-68
2021/06/17 09:38:23;;;;;;;;;;;53.10;22.50;;;;;;5022678;28;20274;-68
2021/06/17 09:40:52;;;;;;;;;;;53.90;22.70;;;;;;5021900;28;20296;-66
2021/06/17 09:43:22;;;;;;;;;;;54.30;22.40;;;;;;4998375;28;19917;-67
2021/06/17 09:45:51;;;;;;;;;;;54.00;22.00;;;;;;5027495;28;19925;-67
2021/06/17 09:48:34;;;;;;;;;;;53.40;22.20;;;;;;5016318;28;19917;-68
2021/06/17 09:51:23;;;;;;;;;;;53.00;22.30;;;;;;5001781;28;20293;-67
2021/06/17 09:53:50;;;;;;;;;;;52.80;22.60;;;;;;5011642;28;19928;-73
2021/06/17 09:56:16;;;;;;;;;;;53.00;22.70;;;;;;5013616;28;19971;-72
2021/06/17 09:58:44;;;;;;;;;;;53.20;22.60;;;;;;5022673;28;19922;-73
2021/06/17 10:01:15;;;;;;;;;;;53.30;22.20;;;;;;5009493;28;19960;-72
2021/06/17 10:03:41;;;;;;;;;;;53.40;22.70;;;;;;5017502;28;19922;-73
2021/06/17 10:06:17;;;;;;;;;;;54.20;22.40;;;;;;5029444;28;19932;-67
2021/06/17 10:08:44;;;;;;;;;;;54.00;22.00;;;;;;4990151;28;19921;-66
2021/06/17 10:11:09;;;;;;;;;;;53.50;22.30;;;;;;5020566;28;20464;-67
2021/06/17 10:13:37;;;;;;;;;;;53.60;22.60;;;;;;5025390;28;19929;-68
2021/06/17 10:16:03;;;;;;;;;;;54.00;22.60;;;;;;5032718;28;19917;-68
2021/06/17 10:18:29;;;;;;;;;;;54.60;22.50;;;;;;5007340;28;19928;-69
2021/06/17 10:20:54;;;;;;;;;;;54.80;22.40;;;;;;5022937;28;19971;-68
2021/06/17 10:23:20;;;;;;;;;;;55.50;22.50;;;;;;5032239;28;19917;-69
2021/06/17 10:25:46;;;;;;;;;;;55.70;21.80;;;;;;5029900;28;19925;-69
2021/06/17 10:28:12;;;;;;;;;;;55.50;21.90;;;;;;5003775;28;19925;-68
2021/06/17 10:30:49;;;;;;;;;;;55.70;21.90;;;;;;5015071;28;19918;-68
2021/06/17 10:33:31;;;;;;;;;;;55.50;21.70;;;;;;5012091;28;20004;-69
2021/06/17 10:36:16;;;;;;;;;;;56.00;22.00;;;;;;5012074;28;19924;-68
2021/06/17 10:39:00;;;;;;;;;;;56.80;21.80;;;;;;5011868;28;19921;-68
2021/06/17 10:41:44;;;;;;;;;;;57.40;21.60;;;;;;5013287;28;20035;-68
2021/06/17 10:44:29;;;;;;;;;;;57.70;21.30;;;;;;5013917;28;19918;-69
2021/06/17 10:46:54;;;;;;;;;;;57.10;20.60;;;;;;5013877;28;19922;-68
2021/06/17 10:49:39;;;;;;;;;;;56.00;21.30;;;;;;5013782;28;19913;-69
2021/06/17 10:52:23;;;;;;;;;;;55.90;21.50;;;;;;5012665;28;19941;-68
2021/06/17 10:55:00;;;;;;;;;;;56.80;21.50;;;;;;5013868;28;20377;-68
2021/06/17 10:57:48;;;;;;;;;;;57.60;21.40;;;;;;5013542;28;19917;-68
2021/06/17 11:00:34;;;;;;;;;;;57.90;20.90;;;;;;5013985;28;19917;-68
2021/06/17 11:03:06;;;;;;;;;;;57.70;20.50;;;;;;5004207;28;19917;-69
2021/06/17 11:05:31;;;;;;;;;;;56.80;20.80;;;;;;5013822;28;20336;-69
2021/06/17 11:08:16;;;;;;;;;;;56.70;21.40;;;;;;5011812;28;19926;-68
2021/06/17 11:10:45;;;;;;;;;;;57.10;21.00;;;;;;5013828;28;20443;-69
2021/06/17 11:13:30;;;;;;;;;;;57.70;20.90;;;;;;5013261;28;19979;-69
2021/06/17 11:15:57;;;;;;;;;;;57.80;20.60;;;;;;5013304;28;19984;-68
2021/06/17 11:21:26;;;;;;;;;;;57.20;20.60;;;;;;5013193;28;19917;-67
2021/06/17 11:24:06;;;;;;;;;;;56.90;20.70;;;;;;5012353;28;19929;-70
2021/06/17 11:26:52;;;;;;;;;;;56.80;21.00;;;;;;5013165;28;19949;-69
2021/06/17 11:29:19;;;;;;;;;;;56.60;20.50;;;;;;5013262;28;19921;-68
2021/06/17 11:31:47;;;;;;;;;;;55.30;20.60;;;;;;5013642;28;19924;-69
2021/06/17 11:34:14;;;;;;;;;;;53.60;20.90;;;;;;5033017;28;19917;-69
2021/06/17 11:36:52;;;;;;;;;;;51.80;21.40;;;;;;5032230;28;19917;-69
2021/06/17 11:39:25;;;;;;;;;;;49.90;22.00;;;;;;5032990;28;19917;-68
2021/06/17 11:41:51;;;;;;;;;;;48.10;22.60;;;;;;5032111;28;19924;-68
2021/06/17 11:44:18;;;;;;;;;;;46.90;23.20;;;;;;5032852;28;19913;-68
2021/06/17 11:46:46;;;;;;;;;;;45.70;23.60;;;;;;5031920;28;20381;-68
2021/06/17 11:49:12;;;;;;;;;;;44.70;24.40;;;;;;5032649;28;19921;-68
2021/06/17 11:51:42;;;;;;;;;;;44.60;24.60;;;;;;5014798;28;19924;-68
2021/06/17 11:54:08;;;;;;;;;;;45.00;24.80;;;;;;5032100;28;19917;-68
2021/06/17 11:56:34;;;;;;;;;;;45.30;24.80;;;;;;5032601;28;19917;-68
2021/06/17 11:59:22;;;;;;;;;;;45.50;24.60;;;;;;5014357;28;19921;-68
2021/06/17 12:02:08;;;;;;;;;;;45.30;24.70;;;;;;5014737;28;19975;-68
2021/06/17 12:04:44;;;;;;;;;;;44.90;24.70;;;;;;5031498;28;19917;-67
2021/06/17 12:07:10;;;;;;;;;;;44.20;25.40;;;;;;5031679;28;19960;-69
2021/06/17 12:09:36;;;;;;;;;;;43.90;25.50;;;;;;5032358;28;20297;-67
2021/06/17 12:12:22;;;;;;;;;;;43.50;25.60;;;;;;5014707;28;19921;-68
2021/06/17 12:14:55;;;;;;;;;;;43.00;25.70;;;;;;5020667;28;20278;-68
2021/06/17 12:17:29;;;;;;;;;;;42.20;25.90;;;;;;5025823;28;19943;-68
2021/06/17 12:19:59;;;;;;;;;;;41.50;26.20;;;;;;5023052;28;19925;-68
2021/06/17 12:22:25;;;;;;;;;;;40.90;26.60;;;;;;4995344;28;19933;-68
2021/06/17 12:24:51;;;;;;;;;;;40.40;26.80;;;;;;5012009;28;19913;-68
2021/06/17 12:27:18;;;;;;;;;;;40.00;27.10;;;;;;5011775;28;20389;-67
2021/06/17 12:29:45;;;;;;;;;;;39.50;27.50;;;;;;5012033;28;20402;-68
2021/06/17 12:32:11;;;;;;;;;;;39.20;27.70;;;;;;5006882;28;19928;-67
2021/06/17 12:34:38;;;;;;;;;;;39.10;28.10;;;;;;5014661;28;19918;-68
2021/06/17 12:37:06;;;;;;;;;;;39.10;28.40;;;;;;5030911;28;19992;-67
2021/06/17 12:39:31;;;;;;;;;;;38.90;28.70;;;;;;5022802;28;20356;-72
2021/06/17 12:41:57;;;;;;;;;;;38.70;28.70;;;;;;5022580;28;19957;-67
2021/06/17 12:44:27;;;;;;;;;;;38.50;29.20;;;;;;4993354;28;20562;-68
2021/06/17 12:46:57;;;;;;;;;;;38.10;28.90;;;;;;5027449;28;20521;-68
2021/06/17 12:52:07;;;;;;;;;;;37.50;29.30;;;;;;5003732;28;19917;-67
2021/06/17 12:54:34;;;;;;;;;;;37.20;29.60;;;;;;4991395;28;19917;-67
2021/06/17 12:57:19;;;;;;;;;;;36.90;29.80;;;;;;5006799;28;19965;-67
2021/06/17 12:59:53;;;;;;;;;;;36.70;30.00;;;;;;5030223;28;19921;-66
2021/06/17 13:02:21;;;;;;;;;;;36.60;30.30;;;;;;5016760;28;19924;-66
2021/06/17 13:05:05;;;;;;;;;;;36.60;30.50;;;;;;5009620;28;20274;-67
2021/06/17 13:07:31;;;;;;;;;;;36.60;30.60;;;;;;5001754;28;20012;-66
2021/06/17 13:10:13;;;;;;;;;;;36.50;30.60;;;;;;5026836;28;19967;-67
2021/06/17 13:12:39;;;;;;;;;;;36.30;30.70;;;;;;5014718;28;19917;-66
2021/06/17 13:15:04;;;;;;;;;;;36.10;31.00;;;;;;5026384;28;19924;-67
2021/06/17 13:17:31;;;;;;;;;;;35.90;31.00;;;;;;5018935;28;19921;-68
2021/06/17 13:19:59;;;;;;;;;;;35.80;31.30;;;;;;5019388;28;19972;-67
2021/06/17 13:22:26;;;;;;;;;;;35.80;31.50;;;;;;5008735;28;20388;-66
2021/06/17 13:24:52;;;;;;;;;;;35.80;31.60;;;;;;5014645;28;19921;-66
2021/06/17 13:27:22;;;;;;;;;;;35.80;31.60;;;;;;5027350;28;19972;-67
2021/06/17 13:29:55;;;;;;;;;;;36.00;31.90;;;;;;5025575;28;19956;-66
2021/06/17 13:32:21;;;;;;;;;;;36.10;31.90;;;;;;5019989;28;19925;-67
2021/06/17 13:34:47;;;;;;;;;;;36.10;31.70;;;;;;5013497;28;20288;-67
2021/06/17 13:37:13;;;;;;;;;;;36.10;31.70;;;;;;5002346;28;19917;-67
2021/06/17 13:39:38;;;;;;;;;;;36.00;31.70;;;;;;5025390;28;19933;-67
2021/06/17 13:42:04;;;;;;;;;;;35.90;31.70;;;;;;5027530;28;19952;-67
2021/06/17 13:44:32;;;;;;;;;;;35.60;31.60;;;;;;5000284;28;21947;-67
2021/06/17 13:46:58;;;;;;;;;;;35.50;32.00;;;;;;5017213;28;19921;-68
2021/06/17 13:49:23;;;;;;;;;;;35.60;31.90;;;;;;5027876;28;19917;-67
2021/06/17 13:51:50;;;;;;;;;;;35.50;31.90;;;;;;5027918;28;19924;-68
2021/06/17 13:54:21;;;;;;;;;;;35.50;31.80;;;;;;5024822;28;20389;-69
2021/06/17 13:56:47;;;;;;;;;;;35.50;31.70;;;;;;5025346;28;20405;-67
2021/06/17 13:59:13;;;;;;;;;;;35.40;31.70;;;;;;5027366;28;20002;-68
2021/06/17 14:01:39;;;;;;;;;;;35.40;31.40;;;;;;4997142;28;20378;-67
2021/06/17 14:04:04;;;;;;;;;;;35.20;31.30;;;;;;5026724;28;19913;-67
2021/06/17 14:06:30;;;;;;;;;;;35.20;31.20;;;;;;5018262;28;20378;-70
2021/06/17 14:08:55;;;;;;;;;;;35.20;31.00;;;;;;5030497;28;19917;-71
2021/06/17 14:11:21;;;;;;;;;;;35.10;30.90;;;;;;5020576;28;19921;-70
2021/06/17 14:13:47;;;;;;;;;;;35.20;30.80;;;;;;5006328;28;19917;-70
2021/06/17 14:16:12;;;;;;;;;;;35.20;30.70;;;;;;5028214;28;20012;-70
2021/06/17 14:18:38;;;;;;;;;;;35.20;30.50;;;;;;4999251;28;20302;-70
2021/06/17 14:21:04;;;;;;;;;;;35.30;30.30;;;;;;5029884;28;19918;-71
2021/06/17 14:23:29;;;;;;;;;;;35.20;30.10;;;;;;5021984;28;20016;-70
2021/06/17 14:25:55;;;;;;;;;;;35.10;29.80;;;;;;5004526;28;19928;-70
2021/06/17 14:28:21;;;;;;;;;;;35.10;29.80;;;;;;5020361;28;19918;-70
2021/06/17 14:30:46;;;;;;;;;;;35.10;30.00;;;;;;5022994;28;20481;-69
2021/06/17 14:33:12;;;;;;;;;;;35.10;30.00;;;;;;5003177;28;19925;-69